Aérodrome :
LOGIN :

S'inscrire | Disclaimer

   EN    FR    IT 

 










Légende :    VFR   VFR Marginal   IFR   IFR Intensif   IFR Très Intensif
Visi : 
Plafond : 
>= 8 km
>= 3000ft
5 à 8 km
1000 à 3000 ft
1500m à 5 km
500 à 1000 ft
800 à 1500m
200 à 500 ft
< 800m
< 200 ft
Symboles :   Orages  Brouillard  Fortes neiges  Fortes précipitations  Vent > 20 kt
SIGMETs :   Divers  Orages  Givrage  Turbulence  Onde Orograph.  Cendres Volcan.







- Altitude de l'aérodrome : 1090 ft
- Code IATA : CFE
- Voir les cartes d'approche


LFLC - Clermont-Ferrand Auvergne

DERNIER METAR :
  • 241530Z AUTO 31002KT 6000 -RA OVC006/// ///CB 09/08 Q1020 TEMPO 4000 RA BR BKN007

METARs EXPIRÉS :
  • 241500Z AUTO VRB03KT 9999 -RA BKN006/// OVC010/// ///TCU 09/07 Q1020 TEMPO 4000 RA BR BKN007
  • 241430Z AUTO VRB02KT 9999 -RA OVC007/// ///TCU 08/07 Q1020 TEMPO 4000 RA BR BKN007
  • 241400Z AUTO 36004KT 330V070 9999 -RA OVC007 08/07 Q1020 TEMPO 3000 RA BR BKN010 BKN020
  • 241330Z AUTO 34003KT 300V040 9999 -RA OVC008 08/06 Q1020 TEMPO 3000 RA BR BKN010 BKN020
  • 241300Z AUTO 34003KT 300V040 7000 -RA OVC010/// ///TCU 07/06 Q1020 TEMPO 3000 RA BR BKN010 BKN020

TAF TAF LFLC
Valide du 24 à 15h jusqu'au 25 à 15h UTC


241400Z 2415/2515 34005KT 9999 BKN020 OVC030
TEMPO 2415/2418 4000 RA BR BKN007
TEMPO 2418/2421 NSW
BECMG 2500/2503 3000 BR BKN003
PROB30
TEMPO 2500/2506 0300 FG VV///
BECMG 2512/2515 16015G25KT
ATIS : +33 4 73 62 74 38
Pas de NOTAMs connus pour ce terrain.
1 SIGMET publié pour la FIR Marseille (LFMM) :
 
Turbulence forte
LFMM SIGMET 3 VALID 241500/241900 LFPW
LFMM MARSEILLE FIR/UIR SEV TURB FCST WI N4300 E00815 - N4215 E00400 - N4315 E00345 - N4400 E00545 SFC/FL060 MOV W 15KT NC=



MET'MAP, la Météo Aéronautique d'un coup d'oeil ! - Copyright ORBIFLY Décembre 2007 - Disclaimer

ORBIFLY MET'MAP TEAM :

Programmation & Développement : Alexandra Zaïnal
Conception & Développement : Baudouin d'Aumeries
Co-Programmation & Développement : Marc-Olivier Méhu
Soutien technique & logistique : Manuel Goepfert

Contact : metmap@orbifly.com




SOURCES & CREDITS :

   NOAA